Time;durP1;ratioP1;P1;durP2;ratioP2;P2;SDS_P1;SDS_P2;PMS_P1;PMS_P2;Temp;Humidity;BMP_temperature;BMP_pressure;BME280_temperature;BME280_humidity;BME280_pressure;Samples;Min_cycle;Max_cycle;Signal;HPM_P1;HPM_P2
2023/06/02 00:00:39;;;;;;;3.95;0.90;;;11.10;99.20;;;;;;5029244;28;20033;-72
2023/06/02 00:03:08;;;;;;;2.67;0.63;;;11.10;99.20;;;;;;5047677;28;20124;-72
2023/06/02 00:05:34;;;;;;;4.18;0.85;;;11.10;99.30;;;;;;5012410;28;20040;-72
2023/06/02 00:08:02;;;;;;;3.40;0.93;;;11.10;99.20;;;;;;5028676;28;20037;-72
2023/06/02 00:10:28;;;;;;;3.22;0.85;;;11.10;99.20;;;;;;5028368;28;20091;-72
2023/06/02 00:12:54;;;;;;;4.97;0.85;;;11.10;99.30;;;;;;5015529;28;20037;-73
2023/06/02 00:15:19;;;;;;;1.95;0.70;;;11.10;99.30;;;;;;5026889;28;20041;-73
2023/06/02 00:17:45;;;;;;;6.40;0.73;;;11.10;99.30;;;;;;5029168;28;20446;-72
2023/06/02 00:20:11;;;;;;;5.68;0.88;;;11.10;99.30;;;;;;5016037;28;20390;-72
2023/06/02 00:22:38;;;;;;;3.95;0.93;;;11.10;99.30;;;;;;5050237;28;20514;-72
2023/06/02 00:25:04;;;;;;;5.72;1.08;;;11.10;99.20;;;;;;5046652;28;20056;-72
2023/06/02 00:27:30;;;;;;;2.03;0.73;;;11.00;99.20;;;;;;5015080;28;21719;-72
2023/06/02 00:29:55;;;;;;;3.85;1.05;;;11.00;99.20;;;;;;5044929;28;20063;-72
2023/06/02 00:32:21;;;;;;;8.85;1.20;;;11.00;99.20;;;;;;5044509;28;20046;-72
2023/06/02 00:34:47;;;;;;;9.63;1.00;;;11.00;99.30;;;;;;5029502;28;20036;-72
2023/06/02 00:37:12;;;;;;;2.95;1.30;;;11.00;99.30;;;;;;5049619;28;20498;-72
2023/06/02 00:39:38;;;;;;;6.50;1.20;;;11.00;99.30;;;;;;5017604;28;20028;-72
2023/06/02 00:42:04;;;;;;;3.88;0.70;;;11.00;99.20;;;;;;5028039;28;20559;-72
2023/06/02 00:44:30;;;;;;;2.92;0.70;;;11.00;99.30;;;;;;5045935;28;20186;-72
2023/06/02 00:46:56;;;;;;;6.13;1.00;;;11.00;99.30;;;;;;5049340;28;20116;-72
2023/06/02 00:49:22;;;;;;;1.23;0.43;;;11.00;99.30;;;;;;5031210;28;20048;-72
2023/06/02 00:51:48;;;;;;;4.38;1.00;;;11.00;99.30;;;;;;5047696;28;20029;-72
2023/06/02 00:54:15;;;;;;;1.95;0.60;;;11.00;99.30;;;;;;5030504;28;20037;-72
2023/06/02 00:56:42;;;;;;;5.05;1.00;;;11.00;99.30;;;;;;5045166;28;20059;-72
2023/06/02 00:59:08;;;;;;;4.85;0.80;;;11.00;99.20;;;;;;5024788;28;20041;-72
2023/06/02 01:01:35;;;;;;;4.47;1.15;;;10.90;99.20;;;;;;5046920;28;20416;-72
2023/06/02 01:04:03;;;;;;;2.53;0.68;;;11.00;99.30;;;;;;5012967;28;20486;-72
2023/06/02 01:06:34;;;;;;;2.28;1.08;;;10.90;99.30;;;;;;5025032;28;20529;-72
2023/06/02 01:09:03;;;;;;;1.80;0.40;;;11.00;99.40;;;;;;5010807;28;20067;-72
2023/06/02 01:11:29;;;;;;;2.35;1.27;;;11.00;99.30;;;;;;5027431;28;20068;-72
2023/06/02 01:13:55;;;;;;;2.75;1.00;;;10.90;99.20;;;;;;5028392;28;20057;-72
2023/06/02 01:16:21;;;;;;;8.18;1.33;;;10.90;99.20;;;;;;5045192;28;20505;-72
2023/06/02 01:18:49;;;;;;;6.97;0.98;;;10.90;99.30;;;;;;5031303;28;20104;-72
2023/06/02 01:21:22;;;;;;;7.07;0.90;;;10.90;99.50;;;;;;5047906;28;20059;-73
2023/06/02 01:23:51;;;;;;;6.65;0.90;;;10.90;99.20;;;;;;5029693;28;20053;-72
2023/06/02 01:26:17;;;;;;;3.22;0.80;;;10.90;99.20;;;;;;5026814;28;20103;-73
2023/06/02 01:28:42;;;;;;;5.50;1.35;;;10.90;99.20;;;;;;5027921;28;20033;-73
2023/06/02 01:31:22;;;;;;;3.88;0.98;;;10.90;99.30;;;;;;5030554;28;20045;-72
2023/06/02 01:34:14;;;;;;;6.40;1.05;;;10.90;99.30;;;;;;5030040;28;20045;-72
2023/06/02 01:36:41;;;;;;;6.82;0.70;;;10.90;99.40;;;;;;5026300;28;20652;-72
2023/06/02 01:39:08;;;;;;;3.15;0.60;;;10.90;99.50;;;;;;5026480;28;20041;-73
2023/06/02 01:41:39;;;;;;;6.10;1.10;;;10.90;99.50;;;;;;5052029;28;20059;-72
2023/06/02 01:44:05;;;;;;;3.45;0.70;;;10.90;99.40;;;;;;5041679;28;20037;-72
2023/06/02 01:46:30;;;;;;;2.67;0.75;;;10.90;99.50;;;;;;5027692;28;20036;-72
2023/06/02 01:48:56;;;;;;;2.65;1.17;;;10.90;99.50;;;;;;5029446;28;20153;-72
2023/06/02 01:51:22;;;;;;;5.47;1.45;;;10.90;99.60;;;;;;5047965;28;20037;-72
2023/06/02 01:53:47;;;;;;;3.38;0.85;;;10.90;99.60;;;;;;5043010;28;20045;-72
2023/06/02 01:56:13;;;;;;;4.80;1.05;;;10.90;99.60;;;;;;5027858;28;20025;-72
2023/06/02 01:58:38;;;;;;;2.28;0.60;;;10.90;99.70;;;;;;5039536;28;20573;-72
2023/06/02 02:01:04;;;;;;;4.82;1.20;;;10.80;99.70;;;;;;5024846;28;20393;-72
2023/06/02 02:03:30;;;;;;;9.88;0.90;;;10.80;99.80;;;;;;5022995;28;20060;-72
2023/06/02 02:05:56;;;;;;;4.38;1.35;;;10.80;99.80;;;;;;5022845;28;20782;-72
2023/06/02 02:08:22;;;;;;;4.18;1.17;;;10.80;99.90;;;;;;5007794;28;20514;-72
2023/06/02 02:10:48;;;;;;;2.72;0.90;;;10.80;99.90;;;;;;5008130;28;20044;-72
2023/06/02 02:13:13;;;;;;;5.82;1.10;;;10.80;99.90;;;;;;5040806;28;20047;-72
2023/06/02 02:15:39;;;;;;;2.65;0.70;;;10.80;99.90;;;;;;5023593;28;20060;-72
2023/06/02 02:18:05;;;;;;;3.30;0.63;;;10.80;99.90;;;;;;5038198;28;20659;-72
2023/06/02 02:20:31;;;;;;;4.97;1.05;;;10.80;99.90;;;;;;5036636;28;20047;-72
2023/06/02 02:22:56;;;;;;;3.05;1.05;;;10.80;99.90;;;;;;5027086;28;20044;-73
2023/06/02 02:25:22;;;;;;;5.10;1.05;;;10.70;99.90;;;;;;5019279;28;20518;-72
2023/06/02 02:27:48;;;;;;;6.28;1.05;;;10.70;99.90;;;;;;5021741;28;20040;-72
2023/06/02 02:30:14;;;;;;;4.43;0.80;;;10.70;99.90;;;;;;5021619;28;20044;-73
2023/06/02 02:32:43;;;;;;;3.35;0.68;;;10.80;99.90;;;;;;5040318;28;20044;-72
2023/06/02 02:35:09;;;;;;;3.95;0.70;;;10.80;99.90;;;;;;5022600;28;20072;-72
2023/06/02 02:37:36;;;;;;;3.50;0.77;;;10.80;99.90;;;;;;5021544;28;20548;-72
2023/06/02 02:40:03;;;;;;;2.53;0.57;;;10.80;99.90;;;;;;5025211;28;20335;-72
2023/06/02 02:42:28;;;;;;;3.17;0.73;;;10.70;99.90;;;;;;5025430;28;20052;-72
2023/06/02 02:44:54;;;;;;;7.53;0.93;;;10.70;99.90;;;;;;5045249;28;20044;-72
2023/06/02 02:47:20;;;;;;;4.60;0.60;;;10.70;99.90;;;;;;5042374;28;20630;-72
2023/06/02 02:49:47;;;;;;;2.95;0.98;;;10.70;99.90;;;;;;5009895;28;20041;-72
2023/06/02 02:52:13;;;;;;;4.43;0.77;;;10.70;99.90;;;;;;5024235;28;20050;-72
2023/06/02 02:54:38;;;;;;;4.10;0.90;;;10.70;99.90;;;;;;5042897;28;20453;-72
2023/06/02 02:57:07;;;;;;;5.68;0.85;;;10.70;99.90;;;;;;5025358;28;20481;-72
2023/06/02 02:59:33;;;;;;;6.65;1.00;;;10.70;99.90;;;;;;5045929;28;20041;-72
2023/06/02 03:01:59;;;;;;;2.38;0.43;;;10.70;99.90;;;;;;5024799;28;20087;-72
2023/06/02 03:04:25;;;;;;;5.45;0.70;;;10.70;99.90;;;;;;5022485;28;20175;-72
2023/06/02 03:06:53;;;;;;;3.90;0.60;;;10.70;99.90;;;;;;5009810;28;20037;-72
2023/06/02 03:09:19;;;;;;;3.50;0.65;;;10.70;99.90;;;;;;5041808;28;20059;-72
2023/06/02 03:11:45;;;;;;;4.30;1.00;;;10.70;99.90;;;;;;5024278;28;20056;-72
2023/06/02 03:14:11;;;;;;;5.10;0.95;;;10.70;99.90;;;;;;5033514;28;20032;-72
2023/06/02 03:16:44;;;;;;;5.18;0.60;;;10.70;99.90;;;;;;5010684;28;20367;-72
2023/06/02 03:19:13;;;;;;;3.17;0.80;;;10.70;99.90;;;;;;5017331;28;20029;-73
2023/06/02 03:21:44;;;;;;;3.72;0.70;;;10.70;99.90;;;;;;5030259;28;20028;-72
2023/06/02 03:24:15;;;;;;;2.30;0.85;;;10.70;99.90;;;;;;5047178;28;20057;-72
2023/06/02 03:26:41;;;;;;;2.45;0.75;;;10.70;99.90;;;;;;5048374;28;20029;-73
2023/06/02 03:29:08;;;;;;;2.08;0.70;;;10.70;99.90;;;;;;5029859;28;20032;-72
2023/06/02 03:31:33;;;;;;;3.88;0.70;;;10.70;99.90;;;;;;5029186;28;20043;-72
2023/06/02 03:33:59;;;;;;;3.20;0.88;;;10.70;99.90;;;;;;5013468;28;20045;-72
2023/06/02 03:36:25;;;;;;;1.65;0.63;;;10.70;99.90;;;;;;5050137;28;20040;-72
2023/06/02 03:38:51;;;;;;;5.90;0.93;;;10.70;99.90;;;;;;5046801;28;20033;-72
2023/06/02 03:41:17;;;;;;;4.45;0.80;;;10.70;99.90;;;;;;5049731;28;20058;-72
2023/06/02 03:43:42;;;;;;;2.58;1.15;;;10.70;99.90;;;;;;5032036;28;20056;-72
2023/06/02 03:46:08;;;;;;;4.22;0.82;;;10.70;99.90;;;;;;5016443;28;20578;-72
2023/06/02 03:48:33;;;;;;;4.72;1.00;;;10.70;99.90;;;;;;5028132;28;20444;-72
2023/06/02 03:50:59;;;;;;;5.32;1.17;;;10.70;99.90;;;;;;5042288;28;20059;-72
2023/06/02 03:53:25;;;;;;;3.97;0.40;;;10.70;99.90;;;;;;5028872;28;20045;-72
2023/06/02 03:55:50;;;;;;;9.35;0.80;;;10.70;99.90;;;;;;5047219;28;20033;-72
2023/06/02 03:58:17;;;;;;;1.48;0.50;;;10.70;99.90;;;;;;5029198;28;20128;-72
2023/06/02 04:00:44;;;;;;;1.67;0.60;;;10.70;99.90;;;;;;5050963;28;20100;-72
2023/06/02 04:03:11;;;;;;;2.42;1.20;;;10.70;99.90;;;;;;5044249;28;20045;-72
2023/06/02 04:05:37;;;;;;;5.32;0.90;;;10.70;99.90;;;;;;5028639;28;20071;-72
2023/06/02 04:08:03;;;;;;;3.97;0.85;;;10.70;99.90;;;;;;5028853;28;20076;-72
2023/06/02 04:10:30;;;;;;;3.47;0.95;;;10.70;99.90;;;;;;5049590;28;20460;-72
2023/06/02 04:12:56;;;;;;;5.93;0.77;;;10.70;99.90;;;;;;5032365;28;20037;-72
2023/06/02 04:15:22;;;;;;;3.58;0.65;;;10.70;99.90;;;;;;5029072;28;20059;-73
2023/06/02 04:17:47;;;;;;;5.55;1.33;;;10.70;99.90;;;;;;5030765;28;20029;-72
2023/06/02 04:20:13;;;;;;;3.17;0.60;;;10.80;99.90;;;;;;5024775;28;20641;-72
2023/06/02 04:22:39;;;;;;;3.33;1.13;;;10.80;99.90;;;;;;5029864;28;20410;-72
2023/06/02 04:25:05;;;;;;;4.15;0.70;;;10.80;99.90;;;;;;5029508;28;20140;-72
2023/06/02 04:27:31;;;;;;;5.07;0.80;;;10.80;99.90;;;;;;5047335;28;20049;-72
2023/06/02 04:29:58;;;;;;;4.45;1.02;;;10.80;99.90;;;;;;5033915;28;20485;-72
2023/06/02 04:32:24;;;;;;;3.38;0.80;;;10.80;99.90;;;;;;5028078;28;20045;-72
2023/06/02 04:34:50;;;;;;;8.40;1.13;;;10.80;99.90;;;;;;5039743;28;20041;-72
2023/06/02 04:37:16;;;;;;;5.95;1.02;;;10.80;99.90;;;;;;5007471;28;20063;-72
2023/06/02 04:39:46;;;;;;;6.32;0.85;;;10.90;99.90;;;;;;5041678;28;20037;-72
2023/06/02 04:42:13;;;;;;;4.53;1.20;;;10.80;99.90;;;;;;5008386;28;20095;-72
2023/06/02 04:44:39;;;;;;;3.42;0.80;;;10.90;99.90;;;;;;5024888;28;20438;-73
2023/06/02 04:47:06;;;;;;;6.20;0.88;;;10.90;99.90;;;;;;5008699;28;20048;-72
2023/06/02 04:49:31;;;;;;;3.72;0.57;;;10.90;99.90;;;;;;5029033;28;20060;-72
2023/06/02 04:51:57;;;;;;;4.35;0.80;;;10.90;99.90;;;;;;5025055;28;20067;-72
2023/06/02 04:54:23;;;;;;;7.53;1.08;;;11.00;99.90;;;;;;5029281;28;20485;-72
2023/06/02 04:56:49;;;;;;;4.63;0.98;;;11.00;99.90;;;;;;5025784;28;20037;-72
2023/06/02 04:59:15;;;;;;;4.18;0.90;;;11.00;99.90;;;;;;5027874;28;22147;-72
2023/06/02 05:01:41;;;;;;;3.15;0.73;;;11.00;99.90;;;;;;5010013;28;20037;-72
2023/06/02 05:04:06;;;;;;;5.43;1.05;;;11.00;99.90;;;;;;5004918;28;20033;-72
2023/06/02 05:06:32;;;;;;;4.93;0.88;;;11.00;99.90;;;;;;5016530;28;20028;-72
2023/06/02 05:08:58;;;;;;;4.80;0.90;;;11.00;99.90;;;;;;5010876;28;20045;-72
2023/06/02 05:11:23;;;;;;;3.22;0.98;;;11.00;99.90;;;;;;5012302;28;20482;-72
2023/06/02 05:13:49;;;;;;;7.22;0.90;;;11.10;99.90;;;;;;5029113;28;20045;-72
2023/06/02 05:16:14;;;;;;;6.13;0.95;;;11.00;99.90;;;;;;5028162;28;20098;-72
2023/06/02 05:18:40;;;;;;;5.78;0.80;;;11.10;99.90;;;;;;5022417;28;20057;-72
2023/06/02 05:21:06;;;;;;;6.50;0.95;;;11.10;99.90;;;;;;5023749;28;20047;-72
2023/06/02 05:23:32;;;;;;;7.63;0.98;;;11.10;99.90;;;;;;5048369;28;20095;-72
2023/06/02 05:25:57;;;;;;;5.22;0.73;;;11.10;99.90;;;;;;5048555;28;20048;-72
2023/06/02 05:28:23;;;;;;;9.85;1.27;;;11.10;99.90;;;;;;5024802;28;20052;-72
2023/06/02 05:30:48;;;;;;;6.20;0.80;;;11.20;99.90;;;;;;5030276;28;20037;-72
2023/06/02 05:33:14;;;;;;;4.78;0.82;;;11.20;99.90;;;;;;5047521;28;20037;-72
2023/06/02 05:35:39;;;;;;;5.63;0.90;;;11.20;99.90;;;;;;5009785;28;20063;-72
2023/06/02 05:38:05;;;;;;;2.42;0.80;;;11.20;99.90;;;;;;5032069;28;20037;-72
2023/06/02 05:40:30;;;;;;;5.88;1.02;;;11.20;99.90;;;;;;5025493;28;20045;-72
2023/06/02 05:42:56;;;;;;;7.10;1.30;;;11.20;99.90;;;;;;5024546;28;20036;-72
2023/06/02 05:45:22;;;;;;;9.43;0.90;;;11.30;99.90;;;;;;5019722;28;20039;-72
2023/06/02 05:47:50;;;;;;;5.00;1.00;;;11.30;99.90;;;;;;5007825;28;20394;-72
2023/06/02 05:50:16;;;;;;;5.15;0.80;;;11.30;99.90;;;;;;5027322;28;20036;-72
2023/06/02 05:52:41;;;;;;;6.05;1.40;;;11.30;99.90;;;;;;5042010;28;20045;-72
2023/06/02 05:55:07;;;;;;;5.78;1.20;;;11.30;99.90;;;;;;5040326;28;20188;-72
2023/06/02 05:57:33;;;;;;;11.20;1.25;;;11.40;99.90;;;;;;5017346;28;20064;-72
2023/06/02 05:59:58;;;;;;;1.73;0.77;;;11.30;99.90;;;;;;5040115;28;20403;-72
2023/06/02 06:02:24;;;;;;;8.10;1.08;;;11.40;99.90;;;;;;5022458;28;20036;-72
2023/06/02 06:04:50;;;;;;;8.48;1.33;;;11.40;99.90;;;;;;5012056;28;20518;-72
2023/06/02 06:07:16;;;;;;;2.70;0.90;;;11.40;99.90;;;;;;5029574;28;20041;-72
2023/06/02 06:09:41;;;;;;;5.78;1.10;;;11.50;99.90;;;;;;5024330;28;20132;-72
2023/06/02 06:12:07;;;;;;;4.40;1.00;;;11.50;99.90;;;;;;5020169;28;20490;-72
2023/06/02 06:14:33;;;;;;;6.68;1.05;;;11.50;99.90;;;;;;5025616;28;20498;-72
2023/06/02 06:16:59;;;;;;;9.20;1.23;;;11.50;99.90;;;;;;5028712;28;20116;-72
2023/06/02 06:19:24;;;;;;;4.80;1.10;;;11.50;99.90;;;;;;5029632;28;20040;-72
2023/06/02 06:21:50;;;;;;;5.38;1.38;;;11.60;99.90;;;;;;5027584;28;20045;-72
2023/06/02 06:24:15;;;;;;;3.60;0.93;;;11.70;99.90;;;;;;5041742;28;20088;-72
2023/06/02 06:26:41;;;;;;;7.60;1.05;;;11.70;99.90;;;;;;5028956;28;20056;-72
2023/06/02 06:29:07;;;;;;;7.72;1.20;;;11.70;99.90;;;;;;5007721;28;20049;-72
2023/06/02 06:31:32;;;;;;;9.07;1.65;;;11.70;99.90;;;;;;5044907;28;20167;-72
2023/06/02 06:33:59;;;;;;;6.60;1.48;;;11.80;99.90;;;;;;5009472;28;20178;-72
2023/06/02 06:36:24;;;;;;;6.22;1.67;;;11.80;99.90;;;;;;5043004;28;20127;-72
2023/06/02 06:38:50;;;;;;;5.78;1.35;;;11.80;99.90;;;;;;5022800;28;20160;-72
2023/06/02 06:41:17;;;;;;;7.47;1.42;;;11.90;99.90;;;;;;5006480;28;20116;-73
2023/06/02 06:43:43;;;;;;;6.82;1.17;;;11.80;99.90;;;;;;5045654;28;20083;-74
2023/06/02 06:46:08;;;;;;;3.55;0.98;;;11.90;99.90;;;;;;5001595;28;20044;-74
2023/06/02 06:48:34;;;;;;;6.82;1.50;;;11.90;99.90;;;;;;5016668;28;20048;-75
2023/06/02 06:50:59;;;;;;;3.70;1.45;;;11.90;99.90;;;;;;5019369;28;20464;-74
2023/06/02 06:53:27;;;;;;;5.10;1.17;;;11.90;99.90;;;;;;5030940;28;20048;-74
2023/06/02 06:55:53;;;;;;;8.85;1.52;;;12.00;99.90;;;;;;5021817;28;20122;-74
2023/06/02 06:58:19;;;;;;;4.53;1.55;;;12.00;99.90;;;;;;5006950;28;20135;-74
2023/06/02 07:00:45;;;;;;;7.15;1.45;;;12.00;99.90;;;;;;5005786;28;20486;-74
2023/06/02 07:03:11;;;;;;;13.18;1.52;;;12.10;99.90;;;;;;5020955;28;20062;-74
2023/06/02 07:05:37;;;;;;;10.40;2.00;;;12.10;99.90;;;;;;5043976;28;20509;-74
2023/06/02 07:08:02;;;;;;;8.05;1.75;;;12.20;99.90;;;;;;5046565;28;20501;-72
2023/06/02 07:10:28;;;;;;;9.40;1.52;;;12.30;99.90;;;;;;5039850;28;20048;-73
2023/06/02 07:12:53;;;;;;;5.03;1.13;;;12.20;99.90;;;;;;5005878;28;20067;-73
2023/06/02 07:15:19;;;;;;;6.38;1.58;;;12.30;99.90;;;;;;5042289;28;20497;-73
2023/06/02 07:17:46;;;;;;;5.13;1.58;;;12.30;99.90;;;;;;5018568;28;20461;-73
2023/06/02 07:20:12;;;;;;;7.50;1.83;;;12.40;99.90;;;;;;5002441;28;20517;-73
2023/06/02 07:22:39;;;;;;;10.95;1.83;;;12.50;99.90;;;;;;5022539;28;20037;-73
2023/06/02 07:25:05;;;;;;;3.25;1.23;;;12.50;99.90;;;;;;5021536;28;20049;-72
2023/06/02 07:27:31;;;;;;;13.40;1.67;;;12.50;99.90;;;;;;5037944;28;20052;-72
2023/06/02 07:29:57;;;;;;;5.28;1.45;;;12.70;99.90;;;;;;5020899;28;20052;-73
2023/06/02 07:32:23;;;;;;;6.13;1.50;;;12.80;99.90;;;;;;5024194;28;20095;-72
2023/06/02 07:34:49;;;;;;;8.00;1.60;;;12.90;99.90;;;;;;5017667;28;20064;-72
2023/06/02 07:37:14;;;;;;;7.00;1.27;;;12.90;99.90;;;;;;5022514;28;20036;-72
2023/06/02 07:39:40;;;;;;;9.27;1.70;;;13.00;99.90;;;;;;5005168;28;20383;-72
2023/06/02 07:42:06;;;;;;;4.35;1.55;;;13.20;99.90;;;;;;5039178;28;20459;-73
2023/06/02 07:44:32;;;;;;;7.97;2.28;;;13.20;99.90;;;;;;5007302;28;20120;-72
2023/06/02 07:46:57;;;;;;;6.55;1.55;;;13.30;99.90;;;;;;5040784;28;20509;-73
2023/06/02 07:49:23;;;;;;;9.68;1.88;;;13.30;99.90;;;;;;5021052;28;20264;-73
2023/06/02 07:51:48;;;;;;;8.52;1.60;;;13.30;99.90;;;;;;5037376;28;20045;-73
2023/06/02 07:54:14;;;;;;;5.53;1.67;;;13.40;99.90;;;;;;5017027;28;20112;-73
2023/06/02 07:56:40;;;;;;;12.00;2.17;;;13.40;99.90;;;;;;5041741;28;20040;-72
2023/06/02 07:59:05;;;;;;;9.10;1.30;;;13.40;99.90;;;;;;5018856;28;20516;-73
2023/06/02 08:01:31;;;;;;;4.47;1.67;;;13.50;99.90;;;;;;5023376;28;20398;-73
2023/06/02 08:03:56;;;;;;;9.07;1.75;;;13.50;99.90;;;;;;5020679;28;20100;-73
2023/06/02 08:06:22;;;;;;;6.55;1.73;;;13.60;99.90;;;;;;5042928;28;20060;-73
2023/06/02 08:08:48;;;;;;;4.55;1.70;;;13.70;99.90;;;;;;5022249;28;20045;-73
2023/06/02 08:11:13;;;;;;;6.97;1.75;;;13.80;99.90;;;;;;5007294;28;20071;-72
2023/06/02 08:13:39;;;;;;;8.82;1.42;;;13.80;99.90;;;;;;5027464;28;20044;-72
2023/06/02 08:16:06;;;;;;;6.45;1.83;;;13.90;99.90;;;;;;5009612;28;20048;-73
2023/06/02 08:18:31;;;;;;;10.27;2.05;;;14.00;99.90;;;;;;5041153;28;20033;-73
2023/06/02 08:20:57;;;;;;;5.15;1.58;;;14.20;99.90;;;;;;5038466;28;20091;-73
2023/06/02 08:23:23;;;;;;;4.43;1.75;;;14.20;99.90;;;;;;5035687;28;20124;-73
2023/06/02 08:25:49;;;;;;;5.57;1.48;;;14.30;99.90;;;;;;5023118;28;20040;-73
2023/06/02 08:28:14;;;;;;;6.60;1.50;;;14.30;99.90;;;;;;5041216;28;20083;-73
2023/06/02 08:30:46;;;;;;;6.32;1.80;;;14.40;99.90;;;;;;5014250;28;22146;-73
2023/06/02 08:33:11;;;;;;;5.15;1.80;;;14.40;99.90;;;;;;5018103;28;20456;-73
2023/06/02 08:35:37;;;;;;;3.10;1.15;;;14.60;99.90;;;;;;5014493;28;20484;-73
2023/06/02 08:38:07;;;;;;;5.53;1.55;;;14.60;99.90;;;;;;5021877;28;20080;-73
2023/06/02 08:40:41;;;;;;;6.00;1.90;;;14.60;99.90;;;;;;5016766;28;20037;-73
2023/06/02 08:43:09;;;;;;;8.90;1.73;;;14.50;99.90;;;;;;5017507;28;20703;-73
2023/06/02 08:45:39;;;;;;;4.72;1.40;;;14.60;99.90;;;;;;5004911;28;20055;-73
2023/06/02 08:48:07;;;;;;;5.55;1.60;;;14.70;99.90;;;;;;5019725;28;20062;-72
2023/06/02 08:50:35;;;;;;;7.50;1.45;;;14.70;99.90;;;;;;5001149;28;20762;-72
2023/06/02 08:53:03;;;;;;;7.07;1.48;;;14.70;99.90;;;;;;5004151;28;20593;-72
2023/06/02 08:55:29;;;;;;;5.18;1.15;;;14.60;99.90;;;;;;5036466;28;20037;-72
2023/06/02 08:57:55;;;;;;;3.70;1.45;;;14.70;99.90;;;;;;5035780;28;20132;-73
2023/06/02 09:00:21;;;;;;;4.45;1.48;;;14.80;99.90;;;;;;5015617;28;20500;-72
2023/06/02 09:02:47;;;;;;;6.40;1.38;;;14.80;99.90;;;;;;5021202;28;20106;-72
2023/06/02 09:05:16;;;;;;;8.45;1.67;;;14.80;99.90;;;;;;5022849;28;20367;-72
2023/06/02 09:07:43;;;;;;;4.05;1.10;;;14.80;99.90;;;;;;5040174;28;20590;-72
2023/06/02 09:10:09;;;;;;;2.78;1.20;;;14.80;99.90;;;;;;5035704;28;20669;-72
2023/06/02 09:12:48;;;;;;;1.85;1.02;;;14.90;99.90;;;;;;5015510;28;20109;-75
2023/06/02 09:15:14;;;;;;;7.18;1.45;;;14.90;99.90;;;;;;5017996;28;20063;-74
2023/06/02 09:17:39;;;;;;;3.75;1.10;;;14.90;99.90;;;;;;5019609;28;20120;-75
2023/06/02 09:20:12;;;;;;;4.72;1.55;;;15.00;99.90;;;;;;5020268;28;20036;-75
2023/06/02 09:22:58;;;;;;;3.63;0.90;;;15.10;99.90;;;;;;5005580;28;20513;-75
2023/06/02 09:25:29;;;;;;;5.10;1.00;;;15.20;99.90;;;;;;5000692;28;20053;-70
2023/06/02 09:27:59;;;;;;;5.20;1.08;;;15.20;99.90;;;;;;5017466;28;20503;-77
2023/06/02 09:30:26;;;;;;;3.35;1.05;;;15.40;99.90;;;;;;5011604;28;20391;-75
2023/06/02 09:32:57;;;;;;;6.30;0.90;;;15.50;99.70;;;;;;5036324;28;20068;-74
2023/06/02 09:35:36;;;;;;;4.15;0.90;;;15.60;99.50;;;;;;4997034;28;20611;-74
2023/06/02 09:38:07;;;;;;;2.03;0.90;;;15.60;98.90;;;;;;5014516;28;20041;-74
2023/06/02 09:40:36;;;;;;;4.60;0.80;;;15.80;99.20;;;;;;5015236;28;20029;-74
2023/06/02 09:43:10;;;;;;;3.13;0.88;;;15.90;99.00;;;;;;5016176;28;20098;-74
2023/06/02 09:45:48;;;;;;;3.58;0.90;;;16.00;98.90;;;;;;5019410;28;20090;-74
2023/06/02 09:48:18;;;;;;;2.13;0.75;;;16.20;97.70;;;;;;5039830;28;20499;-73
2023/06/02 09:50:43;;;;;;;2.42;1.10;;;16.30;98.00;;;;;;5019973;28;20067;-74
2023/06/02 09:53:11;;;;;;;2.83;0.70;;;16.30;97.80;;;;;;5034577;28;20892;-74
2023/06/02 09:55:37;;;;;;;3.40;0.57;;;16.30;97.40;;;;;;5037823;28;20097;-71
2023/06/02 09:58:05;;;;;;;3.05;0.70;;;16.30;97.30;;;;;;5022653;28;20033;-72
2023/06/02 10:00:31;;;;;;;3.72;0.88;;;16.30;97.00;;;;;;5019165;28;20032;-72
2023/06/02 10:02:58;;;;;;;2.88;1.13;;;16.20;97.20;;;;;;5038984;28;20094;-71
2023/06/02 10:05:24;;;;;;;1.15;0.60;;;16.20;96.90;;;;;;5035041;28;20045;-72
2023/06/02 10:08:00;;;;;;;2.60;0.60;;;16.20;97.00;;;;;;5018220;28;20049;-71
2023/06/02 10:10:31;;;;;;;3.78;0.50;;;16.10;96.20;;;;;;5000851;28;20051;-72
2023/06/02 10:13:33;;;;;;;3.38;0.68;;;16.10;96.20;;;;;;5034783;28;20037;-72
2023/06/02 10:16:39;;;;;;;2.55;0.88;;;16.00;95.40;;;;;;5035878;28;21411;-72
2023/06/02 10:19:24;;;;;;;;;;;16.00;95.90;;;;;;5005132;28;20048;-72
2023/06/02 10:22:19;;;;;;;2.47;0.55;;;16.00;94.30;;;;;;5020489;28;19925;-71
2023/06/02 10:24:58;;;;;;;4.35;0.60;;;16.10;96.10;;;;;;5036014;28;20047;-72
2023/06/02 10:27:33;;;;;;;6.60;0.85;;;16.20;95.60;;;;;;5019753;28;20036;-72
2023/06/02 10:29:59;;;;;;;7.57;0.60;;;16.30;94.50;;;;;;5019579;28;20045;-72
2023/06/02 10:32:45;;;;;;;2.70;0.47;;;16.30;95.70;;;;;;5018714;28;20033;-72
2023/06/02 10:35:11;;;;;;;1.85;0.65;;;16.40;93.80;;;;;;5018591;28;20517;-72
2023/06/02 10:37:37;;;;;;;2.53;0.70;;;16.50;94.50;;;;;;5018273;28;20041;-72
2023/06/02 10:40:03;;;;;;;3.33;0.80;;;16.60;94.60;;;;;;5029684;28;20120;-71
2023/06/02 10:42:32;;;;;;;2.05;0.77;;;16.60;94.70;;;;;;5008431;28;20061;-72
2023/06/02 10:45:16;;;;;;;3.40;0.65;;;16.60;94.40;;;;;;5020764;28;20040;-72
2023/06/02 10:47:42;;;;;;;2.83;0.57;;;16.50;92.90;;;;;;5019521;28;20596;-72
2023/06/02 10:50:10;;;;;;;2.10;0.80;;;16.60;94.30;;;;;;5036858;28;20083;-72
2023/06/02 10:52:55;;;;;;;2.97;1.00;;;16.50;94.10;;;;;;5035659;28;20226;-72
2023/06/02 10:55:21;;;;;;;3.97;0.68;;;16.50;93.30;;;;;;5002438;28;20685;-71
2023/06/02 10:58:03;;;;;;;2.38;0.50;;;16.50;94.40;;;;;;5020419;28;20114;-71
2023/06/02 11:03:01;;;;;;;1.58;0.57;;;16.60;92.90;;;;;;5040833;28;20053;-71
2023/06/02 11:05:28;;;;;;;2.72;0.70;;;16.70;93.80;;;;;;5025168;28;20040;-72
2023/06/02 11:08:25;;;;;;;1.30;0.50;;;16.70;93.40;;;;;;5042458;28;20041;-72
2023/06/02 11:10:56;;;;;;;1.88;0.60;;;16.90;90.50;;;;;;5024526;28;20045;-72
2023/06/02 11:13:23;;;;;;;3.38;0.70;;;16.90;92.90;;;;;;5021987;28;20029;-72
2023/06/02 11:15:52;;;;;;;1.35;0.52;;;16.90;92.80;;;;;;5022383;28;20494;-72
2023/06/02 11:18:28;;;;;;;5.90;0.63;;;16.80;92.90;;;;;;5023122;28;20498;-72
2023/06/02 11:20:55;;;;;;;2.72;0.60;;;16.90;92.60;;;;;;5008030;28;20083;-72
2023/06/02 11:23:22;;;;;;;3.67;0.68;;;16.80;92.50;;;;;;5022877;28;20040;-72
2023/06/02 11:25:48;;;;;;;2.53;0.50;;;16.90;91.80;;;;;;5043011;28;20041;-71
2023/06/02 11:28:20;;;;;;;3.63;0.40;;;16.80;91.50;;;;;;5035921;28;20071;-71
2023/06/02 11:30:46;;;;;;;2.55;0.70;;;16.80;90.20;;;;;;5024449;28;20159;-72
2023/06/02 11:33:12;;;;;;;2.53;0.60;;;16.80;90.70;;;;;;5005745;28;20513;-72
2023/06/02 11:35:40;;;;;;;1.08;0.40;;;16.80;89.60;;;;;;5023187;28;20037;-72
2023/06/02 11:38:11;;;;;;;3.17;0.40;;;16.80;88.00;;;;;;5005010;28;20037;-71
2023/06/02 11:40:37;;;;;;;1.60;0.50;;;16.80;87.30;;;;;;5038848;28;20115;-72
2023/06/02 11:43:03;;;;;;;2.50;0.40;;;16.80;87.40;;;;;;5020574;28;20140;-71
2023/06/02 11:45:29;;;;;;;2.20;0.60;;;16.90;86.10;;;;;;5020085;28;20029;-72
2023/06/02 11:48:05;;;;;;;1.65;0.60;;;16.80;85.50;;;;;;5017787;28;20044;-72
2023/06/02 11:50:31;;;;;;;0.85;0.43;;;16.90;84.00;;;;;;5019237;28;20406;-72
2023/06/02 11:52:58;;;;;;;2.03;0.50;;;16.90;82.60;;;;;;5006399;28;20475;-72
2023/06/02 11:55:34;;;;;;;0.95;0.40;;;16.90;80.50;;;;;;5019079;28;20037;-72
2023/06/02 11:58:22;;;;;;;3.55;0.70;;;17.00;75.40;;;;;;5035156;28;20046;-71
2023/06/02 12:00:49;;;;;;;1.67;0.52;;;17.00;68.30;;;;;;5019833;28;20517;-72
2023/06/02 12:03:15;;;;;;;1.42;0.47;;;17.00;75.60;;;;;;5022533;28;21565;-72
2023/06/02 12:05:45;;;;;;;0.88;0.43;;;17.10;73.20;;;;;;5023415;28;20091;-72
2023/06/02 12:08:20;;;;;;;2.17;0.70;;;17.10;72.10;;;;;;5003663;28;20544;-72
2023/06/02 12:10:46;;;;;;;1.65;0.40;;;17.10;64.30;;;;;;5019287;28;20060;-72
2023/06/02 12:13:31;;;;;;;1.35;0.45;;;17.10;68.20;;;;;;5038608;28;20037;-72
2023/06/02 12:16:19;;;;;;;2.15;0.52;;;17.20;63.50;;;;;;5022154;28;20041;-72
2023/06/02 12:18:44;;;;;;;0.63;0.38;;;17.20;63.00;;;;;;5006227;28;20032;-72
2023/06/02 12:21:27;;;;;;;2.78;0.47;;;17.20;67.00;;;;;;5020655;28;20099;-72
2023/06/02 12:23:57;;;;;;;0.73;0.32;;;17.20;61.00;;;;;;5033183;28;20068;-72
2023/06/02 12:26:26;;;;;;;2.75;0.55;;;17.30;63.10;;;;;;5021567;28;20056;-72
2023/06/02 12:28:53;;;;;;;1.60;0.40;;;17.40;63.80;;;;;;5018710;28;20060;-73
2023/06/02 12:31:19;;;;;;;2.08;0.52;;;17.60;62.90;;;;;;5036423;28;20044;-73
2023/06/02 12:33:45;;;;;;;1.90;0.50;;;17.60;63.10;;;;;;5041428;28;20040;-73
2023/06/02 12:36:13;;;;;;;1.13;0.50;;;17.50;63.80;;;;;;5019625;28;20047;-73
2023/06/02 12:38:40;;;;;;;2.28;0.60;;;17.50;64.50;;;;;;5016710;28;20746;-72
2023/06/02 12:41:11;;;;;;;1.30;0.60;;;17.60;64.60;;;;;;5039529;28;20246;-72
2023/06/02 12:43:42;;;;;;;1.63;0.50;;;17.50;64.90;;;;;;5040321;28;20123;-72
2023/06/02 12:46:11;;;;;;;3.47;0.60;;;17.50;65.10;;;;;;5027513;28;20060;-72
2023/06/02 12:48:38;;;;;;;1.92;0.50;;;17.70;64.80;;;;;;5020811;28;20136;-73
2023/06/02 12:51:04;;;;;;;1.92;0.50;;;17.80;64.60;;;;;;5005704;28;20040;-73
2023/06/02 12:53:30;;;;;;;1.85;0.60;;;17.70;64.70;;;;;;5002085;28;20530;-72